Arctic Bay — 9HTD8 — position and weather

sailwx.info

Track history (hours):
 
Tides and Currents Weather Stations Pressure Air Temp Water Temp Dewpoint Dewpoint Depression Visibility Wind Speed Wind Dir Waves Ship Positions

Arctic Bay

Last reported at 2017-Aug-19 22:58 UTC. Time now 2017-Aug-21 10:13 UTC.
Position N 29°58' W 121°20'.

Length 182 m; draft 8.3 m.

Type: Ship. MMSI: 256396000.

Date/timePositionNaut miles runAvg speedWind from/ knotsBaromVisibWave heightAir tempDewpointWater temp
2017-Aug-19 22:58N 29°58' W 121°20'30015.0
2017-Aug-19 02:57N 26°40' W 117°04'715.5
2017-Aug-19 02:29N 26°35' W 116°58'3115.5
2017-Aug-19 00:30N 26°15' W 116°33'1115.5
2017-Aug-18 23:46N 26°07' W 116°23'415.5
2017-Aug-18 23:30N 26°05' W 116°20'815.6
2017-Aug-18 23:01N 25°60' W 116°13'815.5
2017-Aug-18 22:29N 25°55' W 116°06'9815.5
2017-Aug-18 16:08N 24°55' W 114°40'415.2
2017-Aug-18 15:51N 24°53' W 114°36'515.4
2017-Aug-18 15:31N 24°50' W 114°31'  
Track history (hours):
 
Tides and Currents Weather Stations Pressure Air Temp Water Temp Dewpoint Dewpoint Depression Visibility Wind Speed Wind Dir Waves Ship Positions

Arctic Bay

Last reported at 2017-Aug-19 22:58 UTC. Time now 2017-Aug-21 10:13 UTC.
Position N 29°58' W 121°20'.

Length 182 m; draft 8.3 m.

Type: Ship. MMSI: 256396000.

Date/timePositionNaut miles runAvg speedWind from/ knotsBaromVisibWave heightAir tempDewpointWater temp
2017-Aug-19 22:58N 29°58' W 121°20'30015.0
2017-Aug-19 02:57N 26°40' W 117°04'715.5
2017-Aug-19 02:29N 26°35' W 116°58'3115.5
2017-Aug-19 00:30N 26°15' W 116°33'1115.5
2017-Aug-18 23:46N 26°07' W 116°23'415.5
2017-Aug-18 23:30N 26°05' W 116°20'815.6
2017-Aug-18 23:01N 25°60' W 116°13'815.5
2017-Aug-18 22:29N 25°55' W 116°06'9815.5
2017-Aug-18 16:08N 24°55' W 114°40'415.2
2017-Aug-18 15:51N 24°53' W 114°36'515.4
2017-Aug-18 15:31N 24°50' W 114°31'  

Dump ship's entire track history